CYTZ/YTZ METAR and TAF weather

Enter ICAO airport designator
Example: see airport list
Station Type Date Time Source
CYTZ METAR 2016/10/01 13:08 UTC NOAA

CYTZ 011308Z AUTO 09013G22KT 9SM -RA OVC011 14/12 A3017 RMK SLP218


Station Type Date Time Source
CYTZ Decoded METAR 2016/10/01 13:08 UTC NOAA

Toronto Island Airport Automated Reporting Station, Canada (CYTZ) 43-38N 079-24W
Oct 01, 2016 - 09:08 AM EDT / 2016.10.01 1308 UTC
Wind: from the E (090 degrees) at 15 MPH (13 KT) gusting to 25 MPH (22 KT):0
Visibility: 9 mile(s):0
Sky conditions: overcast
Weather: light rain
Temperature: 57 F (14 C)
Dew Point: 53 F (12 C)
Relative Humidity: 87%
Pressure (altimeter): 30.17 in. Hg (1021 hPa)
ob: CYTZ 011308Z AUTO 09013G22KT 9SM -RA OVC011 14/12 A3017 RMK SLP218
cycle: 13

Station Type Date Time Source
CYTZ TAF 2016/10/01 14:42 UTC NOAA

TAF CYTZ 011339Z 0114/0214 09012G22KT 4SM -SHRA BR BKN008 OVC012
TEMPO 0114/0120 P6SM NSW SCT008 OVC012
FM012000 08012G22KT P6SM OVC012
TEMPO 0120/0202 P6SM -RA OVC008
FM020200 14007KT 3SM -SHRA BR OVC006 PROB30 0202/0207 1SM SHRA BR
FM020800 20005KT P6SM BKN012
BECMG 0210/0212 24005KT
RMK FCST BASED ON AUTO OBS. NXT FCST BY 012000Z